createdAt,value
2023-03-31T00:01:07.447Z,1.87
2023-03-31T00:03:36.728Z,2.07
2023-03-31T00:06:04.409Z,1.70
2023-03-31T00:08:33.935Z,1.80
2023-03-31T00:11:02.091Z,2.10
2023-03-31T00:13:30.267Z,2.93
2023-03-31T00:16:02.211Z,2.13
2023-03-31T00:18:30.687Z,2.23
2023-03-31T00:21:02.488Z,2.53
2023-03-31T00:23:29.896Z,2.73
2023-03-31T00:25:57.288Z,2.40
2023-03-31T00:28:24.656Z,2.83
2023-03-31T00:30:52.736Z,2.57
2023-03-31T00:33:20.988Z,2.23
2023-03-31T00:35:49.957Z,2.77
2023-03-31T00:38:17.333Z,2.50
2023-03-31T00:40:46.247Z,2.87
2023-03-31T00:43:33.758Z,2.37
2023-03-31T00:46:17.746Z,2.50
2023-03-31T00:48:46.736Z,2.60
2023-03-31T00:51:14.477Z,3.37
2023-03-31T00:53:42.020Z,2.00
2023-03-31T00:56:13.858Z,1.90
2023-03-31T00:58:44.448Z,2.00
2023-03-31T01:01:14.309Z,2.10
2023-03-31T01:03:42.448Z,2.57
2023-03-31T01:06:12.912Z,2.10
2023-03-31T01:08:40.451Z,2.67
2023-03-31T01:11:09.369Z,2.87
2023-03-31T01:13:37.827Z,2.83
2023-03-31T01:16:05.367Z,2.37
2023-03-31T01:21:27.259Z,3.07
2023-03-31T01:24:12.608Z,2.33
2023-03-31T01:26:47.451Z,3.10
2023-03-31T01:29:23.872Z,2.30
2023-03-31T01:31:55.426Z,2.47
2023-03-31T01:34:41.125Z,2.43
2023-03-31T01:37:26.701Z,2.43
2023-03-31T01:39:58.269Z,2.60
2023-03-31T01:42:30.047Z,3.20
2023-03-31T01:45:04.815Z,2.83
2023-03-31T01:47:34.334Z,2.83
2023-03-31T01:50:03.689Z,2.60
2023-03-31T01:52:32.539Z,2.50
2023-03-31T01:55:04.115Z,2.57
2023-03-31T01:57:33.024Z,2.40
2023-03-31T02:00:05.413Z,2.33
2023-03-31T02:02:52.293Z,2.43
2023-03-31T02:05:21.238Z,2.70
2023-03-31T02:07:50.161Z,3.00
2023-03-31T02:10:18.621Z,2.93
2023-03-31T02:12:46.936Z,2.60
2023-03-31T02:15:18.567Z,2.87
2023-03-31T02:17:47.547Z,2.60
2023-03-31T02:20:16.420Z,2.30
2023-03-31T02:22:45.336Z,2.80
2023-03-31T02:25:14.262Z,2.60
2023-03-31T02:27:44.193Z,2.60
2023-03-31T02:30:12.450Z,2.50
2023-03-31T02:32:41.310Z,2.40
2023-03-31T02:35:10.408Z,2.80
2023-03-31T02:37:38.646Z,2.97
2023-03-31T02:40:09.212Z,3.03
2023-03-31T02:42:38.155Z,2.97
2023-03-31T02:45:07.227Z,3.13
2023-03-31T02:47:35.088Z,3.10
2023-03-31T02:50:03.505Z,3.20
2023-03-31T02:52:35.097Z,2.57
2023-03-31T02:55:04.019Z,2.70
2023-03-31T02:57:35.600Z,2.33
2023-03-31T03:00:16.485Z,3.43
2023-03-31T03:03:01.967Z,3.33
2023-03-31T03:05:32.725Z,3.57
2023-03-31T03:08:18.316Z,2.63
2023-03-31T03:10:47.234Z,2.40
2023-03-31T03:13:21.945Z,2.30
2023-03-31T03:16:06.545Z,3.17
2023-03-31T03:18:34.113Z,2.80
2023-03-31T03:21:01.493Z,2.77
2023-03-31T03:23:28.868Z,2.83
2023-03-31T03:25:56.263Z,2.83
2023-03-31T03:28:23.636Z,2.73
2023-03-31T03:30:51.241Z,2.80
2023-03-31T03:33:18.579Z,2.30
2023-03-31T03:35:45.971Z,2.63
2023-03-31T03:38:13.364Z,3.23
2023-03-31T03:40:40.765Z,2.90
2023-03-31T03:43:08.144Z,2.80
2023-03-31T03:45:35.604Z,2.80
2023-03-31T03:48:03.021Z,2.73
2023-03-31T03:50:30.730Z,3.10
2023-03-31T03:52:58.126Z,2.53
2023-03-31T03:55:25.681Z,3.37
2023-03-31T03:57:53.076Z,2.93
2023-03-31T04:00:20.442Z,2.93
2023-03-31T04:02:47.954Z,2.87
2023-03-31T04:05:15.443Z,2.50
2023-03-31T04:07:42.895Z,2.70
2023-03-31T04:10:10.412Z,3.43
2023-03-31T04:12:38.268Z,2.43
2023-03-31T04:15:06.136Z,2.80
2023-03-31T04:17:34.629Z,3.67
2023-03-31T04:20:04.446Z,3.17
2023-03-31T04:22:33.861Z,3.77
2023-03-31T04:25:04.939Z,3.80
2023-03-31T04:27:33.903Z,3.73
2023-03-31T04:30:01.286Z,3.97
2023-03-31T04:32:30.368Z,3.17
2023-03-31T04:34:59.477Z,3.67
2023-03-31T04:37:28.002Z,3.90
2023-03-31T04:39:55.389Z,3.60
2023-03-31T04:42:24.240Z,4.03
2023-03-31T04:44:51.606Z,3.30
2023-03-31T04:47:18.995Z,3.40
2023-03-31T04:49:46.368Z,4.10
2023-03-31T04:52:13.759Z,3.40
2023-03-31T04:54:41.121Z,3.03
2023-03-31T04:57:08.497Z,3.60
2023-03-31T04:59:35.914Z,3.83
2023-03-31T05:02:03.359Z,3.90
2023-03-31T05:04:30.678Z,3.67
2023-03-31T05:06:58.076Z,2.93
2023-03-31T05:09:25.435Z,2.47
2023-03-31T05:11:52.845Z,3.70
2023-03-31T05:14:20.669Z,3.50
2023-03-31T05:16:48.110Z,4.20
2023-03-31T05:19:15.440Z,3.80
2023-03-31T05:21:42.837Z,3.93
2023-03-31T05:24:10.283Z,3.60
2023-03-31T05:26:37.667Z,3.70
2023-03-31T05:29:05.417Z,3.10
2023-03-31T05:31:33.127Z,3.50
2023-03-31T05:34:00.425Z,3.30
2023-03-31T05:36:27.784Z,3.00
2023-03-31T05:38:55.186Z,3.40
2023-03-31T05:41:22.583Z,3.60
2023-03-31T05:43:49.972Z,3.30
2023-03-31T05:46:18.259Z,4.30
2023-03-31T05:48:45.594Z,4.33
2023-03-31T05:51:12.970Z,4.67
2023-03-31T05:53:41.802Z,4.50
2023-03-31T05:56:09.468Z,3.97
2023-03-31T05:58:37.374Z,4.23
2023-03-31T06:01:06.892Z,4.27
2023-03-31T06:03:35.165Z,4.53
2023-03-31T06:06:03.153Z,3.73
2023-03-31T06:08:30.523Z,4.10
2023-03-31T06:10:58.366Z,3.07
2023-03-31T06:13:25.806Z,2.83
2023-03-31T06:15:54.008Z,3.43
2023-03-31T06:18:21.570Z,3.30
2023-03-31T06:20:49.014Z,3.80
2023-03-31T06:23:16.432Z,3.10
2023-03-31T06:25:51.005Z,3.10
2023-03-31T06:28:12.861Z,2.87
2023-03-31T06:30:40.580Z,3.90
2023-03-31T06:33:08.506Z,2.90
2023-03-31T06:35:37.494Z,2.93
2023-03-31T06:38:04.845Z,3.30
2023-03-31T06:40:32.306Z,3.67
2023-03-31T06:43:00.037Z,3.57
2023-03-31T06:45:27.414Z,3.60
2023-03-31T06:47:54.854Z,3.53
2023-03-31T06:50:22.298Z,3.70
2023-03-31T06:52:51.419Z,3.77
2023-03-31T06:55:18.994Z,4.00
2023-03-31T06:57:46.377Z,3.33
2023-03-31T07:00:14.032Z,3.57
2023-03-31T07:02:41.463Z,2.90
2023-03-31T07:05:08.894Z,3.47
2023-03-31T07:07:36.284Z,2.60
2023-03-31T07:10:03.825Z,2.47
2023-03-31T07:12:32.878Z,3.00
2023-03-31T07:15:00.288Z,2.30
2023-03-31T07:17:27.707Z,2.30
2023-03-31T07:19:55.047Z,2.37
2023-03-31T07:22:22.517Z,3.00
2023-03-31T07:24:49.909Z,2.23
2023-03-31T07:27:17.311Z,1.70
2023-03-31T07:29:44.687Z,2.00
2023-03-31T07:32:12.164Z,1.60
2023-03-31T07:34:41.416Z,2.00
2023-03-31T07:37:08.794Z,1.37
2023-03-31T07:39:37.697Z,1.10
2023-03-31T07:42:06.042Z,1.27
2023-03-31T07:44:34.296Z,1.03
2023-03-31T07:47:03.377Z,1.20
2023-03-31T07:49:31.549Z,1.50
2023-03-31T07:51:58.914Z,1.20
2023-03-31T07:54:26.361Z,1.60
2023-03-31T07:56:53.764Z,1.60
2023-03-31T07:59:21.780Z,1.07
2023-03-31T08:01:49.195Z,0.93
2023-03-31T08:04:16.774Z,1.23
2023-03-31T08:06:44.157Z,0.90
2023-03-31T08:09:12.090Z,0.90
2023-03-31T08:11:39.504Z,0.80
2023-03-31T08:14:06.890Z,0.87
2023-03-31T08:16:34.298Z,0.80
2023-03-31T08:19:01.912Z,1.00
2023-03-31T08:21:29.679Z,0.90
2023-03-31T08:23:57.288Z,1.00
2023-03-31T08:26:25.427Z,0.97
2023-03-31T08:28:53.715Z,0.90
2023-03-31T08:31:25.323Z,0.90
2023-03-31T08:33:52.809Z,1.13
2023-03-31T08:36:20.196Z,1.00
2023-03-31T08:38:49.170Z,1.00
2023-03-31T08:41:20.716Z,0.93
2023-03-31T08:43:49.004Z,1.10
2023-03-31T08:46:17.971Z,1.33
2023-03-31T08:48:48.656Z,1.50
2023-03-31T08:51:21.659Z,1.53
2023-03-31T08:53:50.583Z,2.13
2023-03-31T08:56:20.019Z,1.80
2023-03-31T08:58:49.259Z,1.47
2023-03-31T09:01:18.237Z,1.90
2023-03-31T09:03:47.290Z,1.67
2023-03-31T09:06:16.626Z,1.50
2023-03-31T09:08:44.678Z,1.60
2023-03-31T09:11:13.576Z,1.63
2023-03-31T09:13:59.310Z,2.20
2023-03-31T09:16:34.347Z,1.80
2023-03-31T09:19:02.243Z,2.23
2023-03-31T09:21:31.124Z,2.63
2023-03-31T09:24:01.945Z,1.93
2023-03-31T09:26:36.820Z,2.70
2023-03-31T09:29:07.118Z,2.37
2023-03-31T09:31:35.278Z,2.23
2023-03-31T09:34:04.182Z,2.53
2023-03-31T09:36:32.972Z,2.23
2023-03-31T09:39:00.354Z,2.33
2023-03-31T09:41:27.755Z,2.77
2023-03-31T09:43:55.115Z,3.80
2023-03-31T09:46:33.217Z,2.20
2023-03-31T09:49:02.083Z,2.30
2023-03-31T09:51:31.141Z,2.13
2023-03-31T09:54:05.963Z,2.80
2023-03-31T09:56:34.897Z,3.13
2023-03-31T09:59:02.715Z,2.43
2023-03-31T10:01:31.401Z,2.70
2023-03-31T10:03:59.242Z,2.40
2023-03-31T10:06:26.849Z,2.87
2023-03-31T10:09:01.918Z,2.97
2023-03-31T10:11:29.550Z,2.40
2023-03-31T10:14:03.804Z,2.47
2023-03-31T10:16:47.689Z,1.53
2023-03-31T10:19:25.853Z,1.10
2023-03-31T10:22:00.589Z,1.37
2023-03-31T10:24:29.506Z,1.60
2023-03-31T10:26:57.757Z,1.33
2023-03-31T10:29:26.684Z,1.33
2023-03-31T10:31:54.282Z,1.33
2023-03-31T10:34:22.589Z,1.40
2023-03-31T10:36:51.702Z,1.50
2023-03-31T10:39:19.548Z,1.63
2023-03-31T10:41:51.033Z,1.70
2023-03-31T10:44:35.373Z,1.67
2023-03-31T10:47:07.147Z,1.50
2023-03-31T10:49:36.611Z,1.87
2023-03-31T10:52:04.059Z,1.70
2023-03-31T10:54:31.903Z,2.57
2023-03-31T10:57:05.419Z,2.00
2023-03-31T10:59:52.217Z,1.83
2023-03-31T11:02:39.443Z,2.77
2023-03-31T11:05:15.022Z,2.17
2023-03-31T11:08:00.980Z,2.30
2023-03-31T11:10:47.949Z,2.90
2023-03-31T11:13:16.874Z,2.57
2023-03-31T11:15:51.873Z,2.57
2023-03-31T11:18:23.812Z,2.40
2023-03-31T11:21:09.297Z,2.90
2023-03-31T11:23:38.321Z,3.03
2023-03-31T11:26:11.367Z,3.37
2023-03-31T11:28:40.539Z,3.20
2023-03-31T11:31:09.697Z,2.33
2023-03-31T11:33:55.033Z,2.50
2023-03-31T11:36:28.415Z,2.43
2023-03-31T11:39:15.902Z,2.50
2023-03-31T11:41:53.927Z,2.90
2023-03-31T11:44:22.491Z,2.57
2023-03-31T11:46:51.367Z,2.23
2023-03-31T11:49:21.158Z,3.43
2023-03-31T11:51:50.101Z,2.37
2023-03-31T11:54:19.015Z,2.73
2023-03-31T11:56:46.810Z,2.20
2023-03-31T11:59:18.433Z,2.43
2023-03-31T12:01:47.365Z,3.00
2023-03-31T12:04:29.157Z,2.23
2023-03-31T12:06:58.527Z,2.80
2023-03-31T12:09:46.430Z,2.20
2023-03-31T12:12:17.019Z,1.93
2023-03-31T12:14:45.937Z,3.20
2023-03-31T12:17:15.365Z,2.17
2023-03-31T12:19:50.406Z,2.30
2023-03-31T12:22:21.973Z,2.13
2023-03-31T12:24:49.347Z,2.40
2023-03-31T12:27:21.827Z,2.40
2023-03-31T12:29:53.392Z,2.77
2023-03-31T12:32:22.396Z,2.50
2023-03-31T12:34:51.594Z,2.87
2023-03-31T12:37:20.987Z,2.37
2023-03-31T12:39:52.519Z,2.50
2023-03-31T12:42:30.477Z,2.43
2023-03-31T12:44:59.782Z,2.77
2023-03-31T12:47:34.772Z,2.80
2023-03-31T12:50:18.638Z,2.60
2023-03-31T12:52:53.340Z,2.50
2023-03-31T12:55:30.998Z,2.30
2023-03-31T12:58:16.607Z,1.83
2023-03-31T13:01:07.598Z,1.90
2023-03-31T13:03:36.679Z,2.60
2023-03-31T13:06:05.106Z,2.30
2023-03-31T13:08:52.016Z,1.80
2023-03-31T13:11:20.783Z,2.20
2023-03-31T13:14:00.032Z,1.93
2023-03-31T13:16:20.813Z,1.67
2023-03-31T13:18:52.783Z,1.80
2023-03-31T13:21:21.084Z,2.30
2023-03-31T13:23:48.850Z,1.90
2023-03-31T13:26:36.037Z,2.20
2023-03-31T13:29:11.034Z,2.17
2023-03-31T13:31:56.773Z,2.17
2023-03-31T13:34:24.160Z,1.80
2023-03-31T13:36:59.039Z,2.40
2023-03-31T13:39:46.069Z,2.33
2023-03-31T13:42:14.992Z,1.60
2023-03-31T13:45:01.107Z,1.70
2023-03-31T13:47:36.043Z,1.80
2023-03-31T13:50:04.984Z,1.80
2023-03-31T13:52:36.576Z,2.27
2023-03-31T13:55:05.752Z,1.93
2023-03-31T13:57:34.757Z,2.30
2023-03-31T14:00:20.890Z,1.47
2023-03-31T14:03:00.409Z,2.40
2023-03-31T14:05:41.617Z,1.80
2023-03-31T14:08:12.174Z,1.77
2023-03-31T14:10:41.892Z,1.83
2023-03-31T14:13:18.610Z,1.90
2023-03-31T14:15:50.058Z,2.00
2023-03-31T14:18:19.009Z,2.07
2023-03-31T14:20:47.907Z,1.97
2023-03-31T14:23:26.111Z,2.03
2023-03-31T14:25:55.005Z,1.63
2023-03-31T14:28:42.332Z,1.70
2023-03-31T14:31:15.573Z,1.80
2023-03-31T14:33:47.370Z,2.00
2023-03-31T14:36:33.536Z,1.70
2023-03-31T14:39:05.827Z,1.97
2023-03-31T14:41:33.681Z,1.80
2023-03-31T14:44:02.432Z,2.10
2023-03-31T14:46:33.158Z,2.07
2023-03-31T14:49:02.059Z,1.90
2023-03-31T14:51:31.035Z,1.50
2023-03-31T14:53:58.964Z,1.57
2023-03-31T14:56:34.663Z,2.07
2023-03-31T14:59:02.435Z,1.30
2023-03-31T15:01:32.835Z,1.60
2023-03-31T15:04:01.189Z,1.63
2023-03-31T15:06:31.294Z,1.60
2023-03-31T15:08:58.738Z,2.23
2023-03-31T15:11:28.635Z,1.70
2023-03-31T15:14:05.004Z,1.50
2023-03-31T15:16:45.311Z,1.80
2023-03-31T15:19:14.361Z,1.53
2023-03-31T15:21:41.726Z,1.40
2023-03-31T15:24:10.818Z,1.23
2023-03-31T15:29:10.243Z,1.17
2023-03-31T15:31:37.724Z,1.07
2023-03-31T15:34:22.062Z,1.20
2023-03-31T15:36:49.626Z,1.03
2023-03-31T15:39:17.062Z,1.40
2023-03-31T15:41:45.475Z,1.10
2023-03-31T15:44:32.859Z,1.00
2023-03-31T15:47:01.485Z,1.03
2023-03-31T15:49:30.120Z,1.23
2023-03-31T15:51:59.131Z,1.43
2023-03-31T15:54:40.388Z,1.67
2023-03-31T15:57:08.854Z,1.60
2023-03-31T15:59:55.549Z,1.90
2023-03-31T16:02:20.536Z,1.73
2023-03-31T16:04:52.664Z,1.77
2023-03-31T16:07:21.587Z,1.63
2023-03-31T16:09:50.569Z,1.70
2023-03-31T16:12:19.415Z,1.80
2023-03-31T16:14:49.178Z,1.70
2023-03-31T16:17:21.209Z,1.90
2023-03-31T16:19:50.146Z,1.60
2023-03-31T16:22:19.140Z,1.63
2023-03-31T16:24:46.846Z,1.63
2023-03-31T16:27:14.688Z,2.03
2023-03-31T16:29:42.070Z,1.70
2023-03-31T16:32:11.144Z,1.83
2023-03-31T16:34:55.279Z,1.83
2023-03-31T16:37:23.220Z,1.80
2023-03-31T16:39:50.772Z,2.00
2023-03-31T16:42:18.343Z,1.90
2023-03-31T16:44:52.834Z,2.47
2023-03-31T16:47:27.705Z,1.70
2023-03-31T16:49:45.363Z,1.77
2023-03-31T16:52:13.329Z,2.30
2023-03-31T16:54:41.019Z,1.97
2023-03-31T16:57:08.499Z,2.10
2023-03-31T16:59:35.975Z,2.00
2023-03-31T17:02:03.334Z,1.80
2023-03-31T17:04:30.651Z,1.40
2023-03-31T17:06:58.019Z,2.00
2023-03-31T17:09:25.407Z,1.83
2023-03-31T17:11:52.779Z,2.17
2023-03-31T17:14:20.155Z,1.73
2023-03-31T17:19:17.635Z,1.67
2023-03-31T17:21:45.018Z,2.07
2023-03-31T17:24:12.378Z,1.97
2023-03-31T17:26:39.767Z,1.60
2023-03-31T17:29:07.130Z,1.67
2023-03-31T17:31:34.564Z,1.50
2023-03-31T17:34:01.881Z,1.40
2023-03-31T17:36:29.288Z,1.60
2023-03-31T17:38:56.701Z,1.73
2023-03-31T17:41:24.076Z,1.73
2023-03-31T17:43:51.475Z,1.70
2023-03-31T17:46:19.431Z,1.70
2023-03-31T17:48:46.850Z,1.90
2023-03-31T17:51:15.617Z,1.97
2023-03-31T17:53:44.737Z,1.40
2023-03-31T17:56:12.475Z,1.40
2023-03-31T17:58:39.996Z,1.13
2023-03-31T18:01:08.022Z,1.27
2023-03-31T18:03:36.502Z,1.50
2023-03-31T18:06:04.982Z,1.60
2023-03-31T18:08:33.021Z,1.20
2023-03-31T18:11:00.446Z,1.37
2023-03-31T18:13:30.343Z,1.20
2023-03-31T18:16:01.352Z,1.33
2023-03-31T18:18:33.584Z,1.30
2023-03-31T18:21:02.504Z,1.10
2023-03-31T18:23:29.844Z,1.13
2023-03-31T18:25:57.369Z,1.20
2023-03-31T18:28:24.805Z,1.57
2023-03-31T18:30:53.140Z,1.50
2023-03-31T18:33:21.549Z,2.47
2023-03-31T18:35:56.123Z,1.73
2023-03-31T18:38:19.712Z,1.77
2023-03-31T18:40:49.548Z,1.40
2023-03-31T18:43:18.448Z,1.73
2023-03-31T18:45:49.498Z,1.47
2023-03-31T18:48:18.388Z,1.60
2023-03-31T18:50:46.826Z,1.50
2023-03-31T18:53:16.143Z,1.87
2023-03-31T18:55:43.586Z,1.77
2023-03-31T18:58:15.502Z,1.93
2023-03-31T19:00:43.684Z,2.50
2023-03-31T19:03:12.053Z,2.20
2023-03-31T19:05:42.003Z,1.80
2023-03-31T19:08:13.078Z,2.47
2023-03-31T19:10:40.722Z,2.57
2023-03-31T19:13:09.653Z,1.63
2023-03-31T19:15:37.585Z,1.93
2023-03-31T19:18:06.129Z,2.13
2023-03-31T19:20:43.369Z,1.70
2023-03-31T19:23:12.136Z,1.80
2023-03-31T19:25:40.960Z,2.00
2023-03-31T19:28:09.744Z,2.07
2023-03-31T19:30:37.137Z,2.20
2023-03-31T19:33:05.827Z,2.30
2023-03-31T19:35:33.494Z,2.20
2023-03-31T19:38:03.694Z,1.90
2023-03-31T19:40:31.323Z,2.03
2023-03-31T19:42:58.832Z,2.00
2023-03-31T19:45:26.309Z,1.80
2023-03-31T19:47:53.808Z,2.00
2023-03-31T19:50:21.525Z,2.53
2023-03-31T19:52:49.966Z,1.90
2023-03-31T19:55:17.412Z,1.70
2023-03-31T19:57:44.777Z,1.90
2023-03-31T20:00:12.944Z,2.07
2023-03-31T20:02:40.567Z,2.00
2023-03-31T20:05:08.401Z,1.93
2023-03-31T20:07:36.023Z,2.37
2023-03-31T20:10:03.424Z,1.43
2023-03-31T20:12:30.884Z,2.20
2023-03-31T20:14:58.554Z,1.70
2023-03-31T20:17:26.167Z,2.73
2023-03-31T20:19:54.150Z,1.93
2023-03-31T20:22:21.989Z,2.00
2023-03-31T20:24:49.383Z,1.97
2023-03-31T20:27:16.831Z,3.03
2023-03-31T20:29:44.223Z,1.70
2023-03-31T20:32:11.589Z,1.60
2023-03-31T20:34:38.897Z,1.80
2023-03-31T20:37:06.287Z,2.07
2023-03-31T20:39:33.666Z,2.13
2023-03-31T20:42:01.218Z,1.53
2023-03-31T20:44:28.526Z,2.30
2023-03-31T20:46:57.596Z,1.73
2023-03-31T20:49:24.925Z,2.30
2023-03-31T20:51:52.256Z,1.70
2023-03-31T20:54:19.637Z,2.10
2023-03-31T20:56:47.012Z,1.70
2023-03-31T20:59:15.172Z,1.63
2023-03-31T21:01:43.054Z,2.07
2023-03-31T21:04:11.079Z,1.50
2023-03-31T21:06:42.762Z,1.93
2023-03-31T21:09:12.148Z,2.00
2023-03-31T21:11:40.462Z,1.90
2023-03-31T21:14:08.441Z,2.10
2023-03-31T21:16:35.892Z,1.67
2023-03-31T21:19:03.514Z,2.00
2023-03-31T21:21:31.371Z,1.70
2023-03-31T21:23:58.735Z,1.90
2023-03-31T21:26:26.135Z,1.90
2023-03-31T21:28:55.972Z,1.50
2023-03-31T21:31:24.568Z,1.60
2023-03-31T21:33:52.576Z,1.70
2023-03-31T21:36:24.032Z,1.53
2023-03-31T21:38:53.139Z,1.70
2023-03-31T21:41:22.583Z,1.90
2023-03-31T21:43:51.071Z,1.37
2023-03-31T21:46:20.115Z,2.37
2023-03-31T21:48:50.880Z,1.67
2023-03-31T21:51:19.911Z,1.90
2023-03-31T21:53:47.288Z,1.83
2023-03-31T21:56:14.943Z,1.30
2023-03-31T21:58:42.318Z,1.80
2023-03-31T22:01:09.723Z,2.00
2023-03-31T22:03:38.162Z,2.07
2023-03-31T22:06:09.484Z,1.60
2023-03-31T22:08:37.241Z,1.90
2023-03-31T22:11:05.322Z,1.90
2023-03-31T22:13:33.204Z,1.87
2023-03-31T22:16:01.745Z,2.13
2023-03-31T22:18:30.273Z,1.67
2023-03-31T22:20:58.114Z,2.13
2023-03-31T22:23:27.237Z,1.93
2023-03-31T22:25:54.974Z,2.57
2023-03-31T22:28:22.477Z,1.97
2023-03-31T22:30:49.986Z,2.10
2023-03-31T22:33:17.639Z,1.83
2023-03-31T22:35:45.178Z,2.40
2023-03-31T22:38:13.920Z,2.50
2023-03-31T22:40:41.384Z,2.40
2023-03-31T22:43:08.912Z,2.37
2023-03-31T22:45:37.655Z,2.13
2023-03-31T22:48:06.467Z,2.10
2023-03-31T22:50:33.860Z,2.33
2023-03-31T22:53:01.617Z,2.70
2023-03-31T22:55:29.339Z,2.00
2023-03-31T22:57:56.876Z,2.53
2023-03-31T23:00:24.243Z,2.07
2023-03-31T23:02:51.701Z,2.57
2023-03-31T23:05:19.223Z,2.93
2023-03-31T23:07:46.605Z,2.10
2023-03-31T23:10:14.171Z,2.10
2023-03-31T23:12:43.026Z,2.10
2023-03-31T23:15:10.494Z,1.77
2023-03-31T23:17:37.984Z,2.17
2023-03-31T23:20:06.242Z,1.70
2023-03-31T23:22:34.353Z,1.77
2023-03-31T23:25:01.759Z,2.07
2023-03-31T23:27:29.645Z,2.07
2023-03-31T23:29:57.084Z,2.30
2023-03-31T23:32:26.282Z,1.90
2023-03-31T23:34:54.040Z,1.80
2023-03-31T23:37:21.441Z,1.70
2023-03-31T23:39:48.805Z,1.73
2023-03-31T23:42:17.823Z,1.67
2023-03-31T23:44:45.204Z,2.17
2023-03-31T23:47:12.578Z,1.70
2023-03-31T23:49:39.980Z,1.77
2023-03-31T23:52:07.419Z,1.87
2023-03-31T23:54:34.838Z,1.47
2023-03-31T23:57:03.864Z,1.60
2023-03-31T23:59:31.535Z,1.70
